Time;durP1;ratioP1;P1;durP2;ratioP2;P2;SDS_P1;SDS_P2;PMS_P1;PMS_P2;Temp;Humidity;BMP_temperature;BMP_pressure;BME280_temperature;BME280_humidity;BME280_pressure;Samples;Min_cycle;Max_cycle;Signal;HPM_P1;HPM_P2
2021/06/11 00:00:12;;;;;;;;;;;;;;;15.31;86.74;99027.92;1748015;82;21080;-61
2021/06/11 00:02:39;;;;;;;7.05;6.30;;;;;;;15.31;86.82;99033.41;1741665;81;20137;-61
2021/06/11 00:05:07;;;;;;;7.22;5.42;;;;;;;15.29;86.96;99029.38;1707159;83;21496;-61
2021/06/11 00:07:36;;;;;;;7.90;5.90;;;;;;;15.31;86.86;99027.92;1740604;81;21601;-60
2021/06/11 00:10:06;;;;;;;8.45;6.67;;;;;;;15.30;86.79;99024.15;1739589;82;21071;-61
2021/06/11 00:12:32;;;;;;;7.00;6.30;;;;;;;15.30;86.74;99035.91;1739134;81;21723;-61
2021/06/11 00:14:59;;;;;;;8.08;6.75;;;;;;;15.27;86.74;99028.32;1740589;82;21019;-62
2021/06/11 00:17:25;;;;;;;;;;;;;;;15.25;86.80;99029.22;1739076;82;21413;-62
2021/06/11 00:19:52;;;;;;;8.33;6.53;;;;;;;15.25;86.80;99038.00;1739781;82;20458;-62
2021/06/11 00:22:19;;;;;;;7.65;6.90;;;;;;;15.20;86.98;99034.83;1740697;82;21780;-61
2021/06/11 00:24:46;;;;;;;8.35;5.95;;;;;;;15.23;87.01;99036.94;1738951;82;21002;-61
2021/06/11 00:27:12;;;;;;;7.17;6.05;;;;;;;15.28;86.94;99035.98;1741355;81;21044;-62
2021/06/11 00:29:40;;;;;;;10.00;6.85;;;;;;;15.31;86.87;99043.01;1737271;82;21059;-63
2021/06/11 00:32:07;;;;;;;7.40;5.53;;;;;;;15.34;86.86;99042.36;1738285;81;21022;-61
2021/06/11 00:48:13;;;;;;;10.28;6.37;;;;;;;16.57;83.04;99031.89;1864829;75;22509;-70
2021/06/11 00:50:40;;;;;;;6.12;5.53;;;;;;;16.59;82.76;99040.03;1831941;77;21002;-70
2021/06/11 00:53:10;;;;;;;6.42;5.75;;;;;;;16.42;83.36;99049.11;1827274;77;21056;-71
2021/06/11 00:55:37;;;;;;;6.42;5.70;;;;;;;16.23;83.59;99041.78;1831768;77;21070;-70
2021/06/11 00:58:03;;;;;;;7.28;6.00;;;;;;;16.02;84.00;99048.26;1830124;77;21102;-71
2021/06/11 01:00:30;;;;;;;9.20;6.15;;;;;;;15.90;84.29;99053.05;1800018;78;20946;-72
2021/06/11 01:02:56;;;;;;;7.92;5.70;;;;;;;15.81;84.45;99052.22;1800909;77;21001;-72
2021/06/11 01:05:22;;;;;;;;;;;;;;;15.70;84.77;99050.36;1801737;77;21003;-71
2021/06/11 01:07:50;;;;;;;8.00;5.90;;;;;;;15.65;85.01;99057.39;1829277;77;20422;-71
2021/06/11 01:10:17;;;;;;;6.28;5.62;;;;;;;15.56;85.35;99047.52;1831581;77;20954;-72
2021/06/11 01:12:44;;;;;;;;;;;;;;;15.55;85.45;99047.30;1804777;77;21013;-72
2021/06/11 01:15:12;;;;;;;5.83;5.22;;;;;;;15.53;85.46;99048.97;1832531;77;20454;-72
2021/06/11 01:17:40;;;;;;;8.33;5.53;;;;;;;15.50;85.73;99043.32;1831297;77;21076;-71
2021/06/11 01:20:10;;;;;;;8.53;5.90;;;;;;;15.49;85.70;99048.55;1832074;77;20958;-70
2021/06/11 01:23:03;;;;;;;7.53;5.90;;;;;;;15.48;85.79;99040.07;1830202;77;21083;-71
2021/06/11 01:26:01;;;;;;;6.92;5.65;;;;;;;15.47;86.06;99053.53;1831314;77;21494;-71
2021/06/11 01:28:27;;;;;;;7.05;5.47;;;;;;;15.47;86.11;99042.56;1834124;77;21086;-71
2021/06/11 01:30:55;;;;;;;;;;;;;;;15.44;86.30;99050.28;1809544;77;21478;-71
2021/06/11 01:33:21;;;;;;;;;;;;;;;15.41;86.55;99050.92;1833474;77;20356;-71
2021/06/11 01:35:56;;;;;;;6.33;5.63;;;;;;;15.39;86.79;99056.50;1838236;77;20441;-71
2021/06/11 01:38:25;;;;;;;7.90;6.05;;;;;;;15.37;86.98;99056.02;1835666;77;21100;-71
2021/06/11 01:40:54;;;;;;;8.63;5.67;;;;;;;15.33;87.38;99052.30;1829984;77;20970;-70
2021/06/11 01:43:22;;;;;;;6.35;5.75;;;;;;;15.38;87.12;99054.88;1830563;76;21079;-70
2021/06/11 01:45:48;;;;;;;7.05;5.50;;;;;;;15.41;87.08;99051.48;1829131;77;21013;-73
2021/06/11 01:48:16;;;;;;;7.20;5.47;;;;;;;15.45;86.85;99060.14;1834049;77;20998;-73
2021/06/11 01:50:42;;;;;;;6.83;5.58;;;;;;;15.48;86.74;99062.02;1803520;77;20982;-73
2021/06/11 01:53:10;;;;;;;6.28;5.42;;;;;;;15.49;86.58;99058.16;1797861;77;21079;-72
2021/06/11 01:55:37;;;;;;;8.48;5.42;;;;;;;15.49;86.52;99061.70;1828902;77;20997;-71
2021/06/11 01:58:03;;;;;;;7.12;5.72;;;;;;;15.55;86.44;99063.75;1828021;77;21009;-71
2021/06/11 02:00:30;;;;;;;7.83;5.37;;;;;;;15.58;86.41;99057.63;1827725;77;20988;-71
2021/06/11 02:02:57;;;;;;;10.45;5.50;;;;;;;15.61;86.31;99053.67;1832594;77;21107;-72
2021/06/11 02:05:23;;;;;;;7.85;5.30;;;;;;;15.66;86.19;99054.88;1829498;77;20952;-71
2021/06/11 02:07:50;;;;;;;7.33;5.28;;;;;;;15.69;86.06;99056.19;1831182;77;21511;-71
2021/06/11 02:10:19;;;;;;;5.62;5.00;;;;;;;15.70;85.94;99057.22;1829532;77;21036;-71
2021/06/11 02:12:46;;;;;;;7.05;5.28;;;;;;;15.70;85.78;99062.70;1830095;77;21072;-70
2021/06/11 02:15:13;;;;;;;6.92;5.95;;;;;;;15.69;85.66;99061.11;1813090;77;21044;-71
2021/06/11 02:17:43;;;;;;;11.95;5.60;;;;;;;15.65;85.74;99068.37;1832195;77;21104;-73
2021/06/11 02:20:13;;;;;;;6.83;5.53;;;;;;;15.62;85.81;99070.95;1825520;77;20942;-72
2021/06/11 02:22:41;;;;;;;7.47;5.30;;;;;;;15.62;85.92;99065.45;1834320;76;21076;-72
2021/06/11 02:25:09;;;;;;;6.75;5.05;;;;;;;15.57;86.03;99066.97;1831354;77;20948;-71
2021/06/11 02:27:37;;;;;;;8.20;6.00;;;;;;;15.58;86.01;99068.59;1829653;75;21063;-72
2021/06/11 02:30:08;;;;;;;10.58;5.90;;;;;;;15.58;85.94;99069.97;1831943;77;21474;-72
2021/06/11 02:32:37;;;;;;;8.33;6.10;;;;;;;15.57;86.00;99073.27;1831492;77;21110;-72
2021/06/11 02:35:05;;;;;;;7.85;5.50;;;;;;;15.58;85.98;99074.08;1828884;77;20954;-71
2021/06/11 02:37:32;;;;;;;6.75;5.53;;;;;;;15.57;86.04;99066.97;1810200;77;21557;-72
2021/06/11 02:40:00;;;;;;;6.75;5.42;;;;;;;15.59;86.12;99071.59;1830472;77;21015;-72
2021/06/11 02:42:27;;;;;;;8.65;6.15;;;;;;;15.59;86.06;99075.70;1799576;77;21030;-72
2021/06/11 02:44:55;;;;;;;7.12;6.42;;;;;;;15.54;86.30;99073.91;1803556;77;20970;-72
2021/06/11 02:47:26;;;;;;;7.08;6.10;;;;;;;15.51;86.48;99077.86;1819450;77;21017;-70
2021/06/11 02:49:59;;;;;;;5.80;5.20;;;;;;;15.52;86.96;99085.75;1800398;78;21049;-71
2021/06/11 02:52:27;;;;;;;5.67;5.17;;;;;;;15.57;87.04;99083.43;1802509;78;21124;-73
2021/06/11 02:55:05;;;;;;;8.43;5.97;;;;;;;15.58;86.91;99080.94;1796492;78;20992;-73
2021/06/11 02:58:07;;;;;;;6.55;5.83;;;;;;;15.60;86.90;99084.97;1816491;77;21020;-72
2021/06/11 03:00:33;;;;;;;7.17;6.37;;;;;;;15.63;86.86;99089.81;1820564;77;21388;-73
2021/06/11 03:03:21;;;;;;;;;;;;;;;15.61;86.80;99083.03;1804399;78;21061;-73
2021/06/11 03:05:55;;;;;;;7.55;5.78;;;;;;;15.61;86.85;99083.03;1796449;78;20103;-72
2021/06/11 03:08:24;;;;;;;7.83;6.92;;;;;;;15.54;87.07;99079.96;1791090;77;21073;-72
2021/06/11 03:10:57;;;;;;;7.58;5.67;;;;;;;15.57;86.99;99086.17;1797651;78;21433;-72
2021/06/11 03:13:24;;;;;;;7.03;6.33;;;;;;;15.57;86.81;99080.69;1794950;78;21021;-71
2021/06/11 03:15:50;;;;;;;6.92;6.22;;;;;;;15.63;86.76;99090.37;1795057;78;21341;-70
2021/06/11 03:18:43;;;;;;;6.92;5.95;;;;;;;15.66;86.72;99091.12;1796497;78;21037;-71
2021/06/11 03:21:17;;;;;;;7.55;5.70;;;;;;;15.68;86.59;99088.30;1801202;78;21036;-72
2021/06/11 03:24:01;;;;;;;6.53;5.83;;;;;;;15.64;86.54;99089.25;1730752;82;21055;-71
2021/06/11 03:26:32;;;;;;;9.10;6.05;;;;;;;15.63;86.61;99089.81;1705602;81;21066;-70
2021/06/11 03:29:01;;;;;;;7.78;6.60;;;;;;;15.64;86.67;99093.36;1770239;80;20999;-71
2021/06/11 03:31:37;;;;;;;8.15;5.97;;;;;;;15.68;86.63;99086.11;1773836;79;20939;-70
2021/06/11 03:34:05;;;;;;;9.65;6.22;;;;;;;15.75;86.65;99091.94;1773763;79;21007;-70
2021/06/11 03:36:38;;;;;;;7.25;6.50;;;;;;;15.80;86.48;99095.91;1771942;79;20970;-71
2021/06/11 03:39:15;;;;;;;8.85;6.35;;;;;;;15.78;86.39;99092.66;1738208;82;21536;-71
2021/06/11 03:41:42;;;;;;;6.95;6.25;;;;;;;15.80;86.44;99090.42;1774414;80;21534;-72
2021/06/11 03:44:10;;;;;;;;;;;;;;;15.88;86.54;99096.45;1775042;79;21007;-72
2021/06/11 03:46:38;;;;;;;;;;;;;;;15.92;86.22;99090.57;1773148;79;20104;-73
2021/06/11 03:49:04;;;;;;;7.05;6.35;;;;;;;15.84;86.29;99095.48;1762371;80;20131;-75
2021/06/11 03:51:31;;;;;;;8.65;6.60;;;;;;;15.76;86.49;99093.56;1791151;79;21046;-71
2021/06/11 03:53:57;;;;;;;7.35;6.25;;;;;;;15.78;86.42;99098.15;1771848;80;21079;-73
2021/06/11 03:56:25;;;;;;;8.25;6.47;;;;;;;15.81;86.34;99093.38;1768109;80;21013;-72
2021/06/11 03:58:52;;;;;;;9.60;6.45;;;;;;;15.80;86.30;99100.02;1765142;80;21053;-72
2021/06/11 04:01:21;;;;;;;;;;;;;;;15.80;86.38;99098.66;1770617;80;21024;-73
2021/06/11 04:03:47;;;;;;;7.60;6.10;;;;;;;15.83;86.47;99098.81;1767870;80;20146;-71
2021/06/11 04:06:16;;;;;;;;;;;;;;;15.85;86.72;99098.48;1765946;80;21510;-72
2021/06/11 04:08:42;;;;;;;9.20;6.92;;;;;;;15.90;86.55;99095.03;1763706;78;20143;-72
2021/06/11 04:11:13;;;;;;;7.95;6.70;;;;;;;15.89;86.58;99097.52;1769204;80;21551;-72
2021/06/11 04:13:52;;;;;;;9.35;7.10;;;;;;;15.90;86.55;99100.52;1748327;81;21544;-72
2021/06/11 04:16:23;;;;;;;8.83;6.10;;;;;;;15.94;86.51;99106.95;1751524;80;21014;-71
2021/06/11 04:18:52;;;;;;;8.18;6.95;;;;;;;15.97;86.38;99106.89;1766670;80;21051;-72
2021/06/11 04:21:23;;;;;;;7.58;6.42;;;;;;;15.98;86.27;99103.00;1784702;79;20952;-71
2021/06/11 04:23:52;;;;;;;7.05;6.35;;;;;;;16.05;86.27;99108.81;1763849;80;20982;-72
2021/06/11 04:26:20;;;;;;;6.95;5.60;;;;;;;16.14;86.16;99101.41;1764899;80;20969;-72
2021/06/11 04:28:46;;;;;;;7.20;6.50;;;;;;;16.20;85.92;99106.97;1785036;79;21007;-72
2021/06/11 04:31:13;;;;;;;8.60;6.22;;;;;;;16.21;85.75;99114.64;1750010;80;20996;-73
2021/06/11 04:33:40;;;;;;;8.55;6.12;;;;;;;16.22;85.63;99104.72;1741902;81;21094;-72
2021/06/11 04:36:08;;;;;;;;;;;;;;;16.22;85.50;99106.66;1764326;80;21552;-72
2021/06/11 04:38:59;;;;;;;8.38;5.30;;;;;;;16.27;85.50;99110.59;1767520;80;20136;-73
2021/06/11 04:41:27;;;;;;;10.70;6.83;;;;;;;16.28;85.59;99113.59;1769582;79;20972;-73
2021/06/11 04:43:57;;;;;;;9.40;6.40;;;;;;;16.31;85.46;99113.75;1766156;80;21024;-72
2021/06/11 04:46:24;;;;;;;6.83;6.15;;;;;;;16.35;85.34;99117.47;1782605;79;21549;-72
2021/06/11 04:48:50;;;;;;;;;;;;;;;16.38;85.69;99119.56;1796369;79;21004;-72
2021/06/11 04:51:16;;;;;;;6.85;5.70;;;;;;;16.48;85.53;99124.47;1794909;79;20482;-72
2021/06/11 04:53:43;;;;;;;;;;;;;;;16.50;85.38;99123.03;1797689;79;21023;-73
2021/06/11 04:56:10;;;;;;;6.92;5.85;;;;;;;16.52;85.17;99119.38;1794511;79;20195;-73
2021/06/11 04:58:39;;;;;;;7.53;5.97;;;;;;;16.51;85.43;99123.84;1789299;79;21051;-71
2021/06/11 05:01:06;;;;;;;7.08;6.00;;;;;;;16.58;85.34;99124.97;1793791;79;20988;-73
2021/06/11 05:03:33;;;;;;;6.30;5.53;;;;;;;16.66;85.08;99124.72;1792932;79;21035;-72
2021/06/11 05:06:04;;;;;;;6.80;6.10;;;;;;;16.68;84.70;99115.03;1798466;79;21426;-72
2021/06/11 05:08:29;;;;;;;6.87;5.87;;;;;;;16.71;84.57;99117.69;1798191;79;21020;-72
2021/06/11 05:10:56;;;;;;;7.62;5.72;;;;;;;16.79;84.53;99126.48;1796903;79;20982;-71
2021/06/11 05:13:23;;;;;;;6.80;5.33;;;;;;;16.82;84.14;99120.33;1793946;79;21536;-71
2021/06/11 05:15:49;;;;;;;8.58;6.33;;;;;;;16.78;84.01;99123.48;1779948;79;20975;-71
2021/06/11 05:18:16;;;;;;;6.80;5.60;;;;;;;16.81;84.06;99120.89;1747093;82;21487;-71
2021/06/11 05:20:42;;;;;;;;;;;;;;;16.90;83.99;99117.54;1741823;81;21033;-71
2021/06/11 05:23:08;;;;;;;6.95;5.70;;;;;;;16.95;83.45;99126.75;1794847;79;20094;-70
2021/06/11 05:25:36;;;;;;;8.55;6.40;;;;;;;16.86;83.35;99122.08;1762322;80;21064;-71
2021/06/11 05:28:03;;;;;;;7.95;5.70;;;;;;;16.84;83.36;99125.73;1795349;79;21023;-71
2021/06/11 05:30:30;;;;;;;6.75;5.92;;;;;;;16.88;83.46;99119.01;1788562;79;21502;-71
2021/06/11 05:32:58;;;;;;;;;;;;;;;16.95;83.57;99123.44;1798270;79;21486;-70
2021/06/11 05:35:25;;;;;;;7.95;6.08;;;;;;;17.01;83.42;99122.11;1764065;80;20133;-70
2021/06/11 05:37:52;;;;;;;7.08;5.55;;;;;;;16.99;83.09;99122.21;1756820;80;21046;-71
2021/06/11 05:40:18;;;;;;;8.50;6.28;;;;;;;17.00;83.13;99127.39;1762745;80;21067;-71
2021/06/11 05:42:45;;;;;;;8.60;5.92;;;;;;;17.00;82.92;99128.77;1761239;80;21083;-71
2021/06/11 05:45:14;;;;;;;9.68;5.62;;;;;;;16.99;82.63;99139.52;1761520;80;20979;-72
2021/06/11 05:47:40;;;;;;;7.05;4.85;;;;;;;17.01;82.67;99137.23;1769211;79;21047;-72
2021/06/11 05:50:07;;;;;;;7.20;6.10;;;;;;;17.05;82.79;99142.89;1799309;79;20990;-69
2021/06/11 05:52:35;;;;;;;6.62;5.90;;;;;;;17.10;82.72;99136.66;1771971;79;21147;-71
2021/06/11 05:55:03;;;;;;;6.72;5.55;;;;;;;17.18;82.47;99143.27;1760055;81;21009;-71
2021/06/11 05:57:30;;;;;;;7.85;5.97;;;;;;;17.18;82.26;99139.92;1768660;79;21038;-72
2021/06/11 06:00:00;;;;;;;7.47;6.25;;;;;;;17.20;82.17;99143.73;1770950;79;21489;-72
2021/06/11 06:02:27;;;;;;;5.08;4.58;;;;;;;17.20;82.07;99140.42;1773014;79;21091;-71
2021/06/11 06:04:53;;;;;;;7.90;5.78;;;;;;;17.24;82.20;99148.25;1786436;79;20987;-73
2021/06/11 06:07:20;;;;;;;6.80;5.87;;;;;;;17.31;81.94;99142.23;1788465;79;21079;-72
2021/06/11 06:09:46;;;;;;;5.53;5.03;;;;;;;17.35;81.79;99155.01;1788453;79;21031;-71
2021/06/11 06:12:13;;;;;;;5.60;5.03;;;;;;;17.45;82.00;99151.64;1778972;79;21038;-71
2021/06/11 06:14:40;;;;;;;7.60;5.30;;;;;;;17.53;81.52;99154.36;1760015;79;21061;-72
2021/06/11 06:17:06;;;;;;;;;;;;;;;17.57;81.62;99144.91;1783415;78;21097;-72
2021/06/11 06:19:33;;;;;;;6.53;4.47;;;;;;;17.64;81.31;99149.31;1776036;79;20130;-73
2021/06/11 06:21:59;;;;;;;5.92;5.33;;;;;;;17.66;81.74;99147.02;1788371;78;21029;-73
2021/06/11 06:24:25;;;;;;;;;;;;;;;17.76;81.09;99154.33;1781474;79;21018;-73
2021/06/11 06:26:52;;;;;;;6.10;4.47;;;;;;;17.80;80.39;99152.53;1785657;78;20135;-71
2021/06/11 06:29:18;;;;;;;5.42;4.80;;;;;;;17.75;80.75;99151.90;1797779;79;21034;-73
2021/06/11 06:31:46;;;;;;;5.60;5.05;;;;;;;17.77;80.83;99153.77;1776947;79;21647;-71
2021/06/11 06:34:14;;;;;;;5.50;5.00;;;;;;;17.81;80.10;99156.09;1758310;80;21390;-72
2021/06/11 06:36:42;;;;;;;7.47;5.45;;;;;;;17.84;80.11;99158.17;1774386;79;21686;-74
2021/06/11 06:39:08;;;;;;;7.20;4.62;;;;;;;17.89;80.08;99163.47;1777702;79;21052;-71
2021/06/11 06:41:36;;;;;;;6.45;4.78;;;;;;;17.96;80.50;99167.88;1780611;79;21005;-70
2021/06/11 06:44:03;;;;;;;6.83;5.20;;;;;;;18.03;79.30;99168.16;1779312;79;21044;-71
2021/06/11 06:46:32;;;;;;;5.92;4.83;;;;;;;18.02;78.60;99163.00;1756211;79;21073;-69
2021/06/11 06:49:00;;;;;;;7.47;4.60;;;;;;;17.99;78.81;99158.17;1783569;79;21081;-70
2021/06/11 06:51:27;;;;;;;5.92;5.08;;;;;;;18.05;78.60;99158.20;1766963;80;20982;-69
2021/06/11 06:53:55;;;;;;;6.15;4.67;;;;;;;18.10;78.17;99163.52;1761729;81;21073;-70
2021/06/11 06:56:24;;;;;;;4.67;4.17;;;;;;;18.16;78.10;99165.73;1766997;81;20966;-69
2021/06/11 06:58:52;;;;;;;7.22;5.00;;;;;;;18.20;78.04;99161.17;1776259;80;21107;-72
2021/06/11 07:01:19;;;;;;;10.48;6.62;;;;;;;18.29;77.59;99163.84;1766042;78;21057;-72
2021/06/11 07:03:46;;;;;;;6.70;4.20;;;;;;;18.34;77.07;99154.82;1777567;79;21660;-71
2021/06/11 07:06:14;;;;;;;;;;;;;;;18.38;76.95;99163.22;1768155;81;21014;-73
2021/06/11 07:08:40;;;;;;;4.75;3.62;;;;;;;18.38;76.74;99158.52;1764877;80;20412;-70
2021/06/11 07:11:07;;;;;;;;;;;;;;;18.32;75.63;99162.60;1766575;80;20990;-70
2021/06/11 07:13:33;;;;;;;4.87;3.10;;;;;;;18.30;75.34;99162.71;1760538;80;20102;-70
2021/06/11 07:16:00;;;;;;;4.62;3.22;;;;;;;18.28;75.25;99158.12;1784776;79;20990;-73
2021/06/11 07:18:26;;;;;;;6.30;3.20;;;;;;;18.33;75.15;99150.45;1803045;79;21109;-70
2021/06/11 07:20:53;;;;;;;4.97;3.25;;;;;;;18.42;74.77;99159.22;1779116;79;21555;-71
2021/06/11 07:23:20;;;;;;;5.58;3.58;;;;;;;18.43;74.62;99157.48;1774474;79;21576;-71
2021/06/11 07:25:46;;;;;;;4.53;2.83;;;;;;;18.52;75.14;99158.27;1793744;79;20971;-70
2021/06/11 07:28:12;;;;;;;4.60;2.80;;;;;;;18.67;75.50;99159.59;1771539;80;21595;-71
2021/06/11 07:30:39;;;;;;;4.35;3.12;;;;;;;18.73;74.46;99165.13;1766214;79;21014;-73
2021/06/11 07:33:06;;;;;;;6.25;3.12;;;;;;;18.80;74.75;99161.24;1771819;79;21097;-71
2021/06/11 07:35:38;;;;;;;4.83;3.33;;;;;;;18.86;73.54;99163.44;1772798;79;21073;-72
2021/06/11 07:38:05;;;;;;;4.40;3.15;;;;;;;18.99;73.23;99171.16;1770675;80;21195;-71
2021/06/11 07:40:32;;;;;;;6.33;3.52;;;;;;;19.05;72.60;99166.25;1748030;81;21034;-72
2021/06/11 07:43:00;;;;;;;4.55;3.20;;;;;;;19.28;72.90;99168.81;1763421;79;21527;-72
2021/06/11 07:45:26;;;;;;;4.12;3.27;;;;;;;19.50;71.97;99156.56;1747195;79;21005;-72
2021/06/11 07:47:54;;;;;;;3.62;2.87;;;;;;;19.60;70.78;99165.20;1786016;79;21121;-74
2021/06/11 07:50:21;;;;;;;3.95;2.95;;;;;;;19.69;70.08;99164.53;1777191;80;21037;-73
2021/06/11 07:52:48;;;;;;;5.62;3.55;;;;;;;19.76;69.13;99161.98;1763523;79;21025;-72
2021/06/11 07:55:15;;;;;;;4.85;3.77;;;;;;;19.79;69.14;99169.58;1773267;80;21579;-73
2021/06/11 07:57:42;;;;;;;4.35;3.10;;;;;;;19.83;69.15;99160.84;1774884;79;21028;-72
2021/06/11 08:00:09;;;;;;;5.15;3.25;;;;;;;19.83;68.07;99158.64;1765495;80;21046;-72
2021/06/11 08:02:42;;;;;;;3.42;2.77;;;;;;;19.84;68.34;99158.85;1790713;80;21557;-75
2021/06/11 08:05:10;;;;;;;6.67;3.17;;;;;;;19.92;68.07;99162.65;1746573;81;20981;-72
2021/06/11 08:07:36;;;;;;;4.60;2.90;;;;;;;19.95;67.75;99153.09;1720914;81;21493;-73
2021/06/11 08:10:05;;;;;;;3.87;3.20;;;;;;;20.07;68.31;99155.84;1769163;80;20996;-73
2021/06/11 08:12:36;;;;;;;6.12;3.70;;;;;;;20.30;67.92;99154.77;1768476;80;21036;-72
2021/06/11 08:15:02;;;;;;;4.67;3.30;;;;;;;20.47;67.05;99163.37;1775945;79;21055;-74
2021/06/11 08:17:29;;;;;;;5.45;3.50;;;;;;;20.49;66.10;99164.63;1771120;80;21059;-74
2021/06/11 08:19:55;;;;;;;4.53;3.30;;;;;;;20.56;66.41;99169.55;1753716;80;21630;-73
2021/06/11 08:22:21;;;;;;;5.10;3.08;;;;;;;20.56;66.31;99167.59;1777098;79;21505;-74
2021/06/11 08:24:48;;;;;;;6.97;3.80;;;;;;;20.63;66.48;99162.84;1777437;79;21008;-71
2021/06/11 08:27:14;;;;;;;8.08;5.17;;;;;;;20.72;66.16;99163.52;1778182;79;21032;-73
2021/06/11 08:29:41;;;;;;;5.80;3.65;;;;;;;20.77;65.81;99172.92;1768862;80;21083;-73
2021/06/11 08:32:08;;;;;;;4.67;3.20;;;;;;;20.76;64.82;99168.57;1779157;79;20989;-73
2021/06/11 08:34:36;;;;;;;4.45;3.52;;;;;;;20.60;64.50;99175.42;1770982;79;21010;-73
2021/06/11 08:37:05;;;;;;;6.08;3.65;;;;;;;20.52;65.39;99176.36;1779033;80;21038;-73
2021/06/11 08:39:32;;;;;;;4.08;3.58;;;;;;;20.55;65.16;99171.51;1768543;81;21046;-72
2021/06/11 08:41:58;;;;;;;6.72;4.10;;;;;;;20.57;65.00;99162.87;1771873;79;21020;-73
2021/06/11 08:44:27;;;;;;;4.33;3.22;;;;;;;20.67;65.80;99154.88;1769615;79;21028;-73
2021/06/11 08:46:55;;;;;;;4.10;3.20;;;;;;;21.00;64.81;99155.99;1761985;80;21617;-73
2021/06/11 08:49:23;;;;;;;4.00;3.22;;;;;;;21.31;63.76;99160.20;1773964;79;21997;-74
2021/06/11 08:51:55;;;;;;;4.20;3.00;;;;;;;21.59;62.13;99148.22;1782435;79;21037;-75
2021/06/11 08:54:21;;;;;;;4.37;3.20;;;;;;;21.68;60.73;99153.02;1778768;79;21344;-74
2021/06/11 08:56:50;;;;;;;5.42;3.60;;;;;;;21.79;60.48;99152.66;1774454;80;21048;-72
2021/06/11 08:59:16;;;;;;;5.33;3.40;;;;;;;21.87;59.49;99146.70;1742412;81;21102;-73
2021/06/11 09:01:44;;;;;;;9.08;4.00;;;;;;;21.94;60.00;99146.90;1782306;78;21081;-73
2021/06/11 09:04:10;;;;;;;32.15;16.25;;;;;;;22.02;61.14;99146.71;1779079;80;21009;-72
2021/06/11 09:06:36;;;;;;;5.78;3.67;;;;;;;22.16;59.85;99140.67;1787288;78;21022;-71
2021/06/11 09:09:05;;;;;;;4.70;3.05;;;;;;;22.35;59.85;99139.91;1823902;79;21073;-71
2021/06/11 09:11:33;;;;;;;6.92;3.77;;;;;;;22.51;58.85;99140.05;1766739;79;21566;-72
2021/06/11 09:14:11;;;;;;;4.28;3.08;;;;;;;22.55;58.24;99135.38;1791374;79;21047;-72
2021/06/11 09:16:47;;;;;;;4.53;3.10;;;;;;;22.36;59.77;99138.71;1791084;80;21014;-72
2021/06/11 09:19:19;;;;;;;4.87;3.77;;;;;;;22.27;59.72;99138.36;1791775;79;21059;-74
2021/06/11 09:21:47;;;;;;;3.87;3.00;;;;;;;22.18;59.04;99143.30;1788031;79;21007;-71
2021/06/11 09:24:23;;;;;;;5.55;3.33;;;;;;;22.09;59.38;99137.17;1796533;79;21082;-71
2021/06/11 09:27:07;;;;;;;4.05;3.22;;;;;;;22.01;59.17;99136.78;1795726;79;21066;-71
2021/06/11 09:29:38;;;;;;;4.62;3.10;;;;;;;21.94;59.11;99135.81;1790049;80;21020;-71
2021/06/11 09:32:32;;;;;;;4.53;3.42;;;;;;;22.15;58.56;99137.09;1781424;79;21038;-73
2021/06/11 09:35:05;;;;;;;7.55;3.65;;;;;;;22.47;58.15;99135.00;1792370;79;21055;-72
2021/06/11 09:49:44;;;;;;;8.53;4.33;;;;;;;24.01;53.75;99130.43;1777941;78;23008;-64
2021/06/11 09:52:11;;;;;;;10.13;4.22;;;;;;;23.61;54.16;99132.39;1669699;86;21085;-65
2021/06/11 09:54:37;;;;;;;16.85;6.25;;;;;;;22.99;56.20;99144.17;1719470;82;21051;-61
2021/06/11 09:57:25;;;;;;;23.98;8.73;;;;;;;22.51;57.58;99144.20;1709439;83;21014;-64
2021/06/11 09:59:52;;;;;;;3.70;3.00;;;;;;;22.11;59.47;99140.37;1691972;83;21052;-62
2021/06/11 10:02:22;;;;;;;6.00;3.70;;;;;;;21.78;60.20;99138.03;1696971;84;21016;-65
2021/06/11 10:04:49;;;;;;;8.75;4.87;;;;;;;21.52;61.28;99136.97;1698998;83;21054;-66
2021/06/11 10:07:15;;;;;;;5.87;3.37;;;;;;;21.30;62.26;99138.41;1707648;83;21449;-63
2021/06/11 10:09:44;;;;;;;8.40;3.47;;;;;;;21.23;62.83;99133.49;1695956;82;21150;-62
2021/06/11 10:12:12;;;;;;;5.67;3.55;;;;;;;21.20;62.81;99129.25;1707900;83;21021;-63
2021/06/11 10:14:39;;;;;;;5.40;3.72;;;;;;;21.24;63.81;99133.72;1672277;85;21636;-63
2021/06/11 10:17:06;;;;;;;5.17;3.27;;;;;;;21.48;64.41;99127.19;1715849;83;21135;-63
2021/06/11 10:19:32;;;;;;;6.78;3.90;;;;;;;21.83;62.45;99126.65;1709877;83;21141;-62
2021/06/11 10:21:59;;;;;;;5.00;3.55;;;;;;;21.96;61.47;99124.61;1696910;83;21051;-63
2021/06/11 10:24:25;;;;;;;5.92;3.33;;;;;;;21.90;61.75;99134.89;1686550;83;21034;-63
2021/06/11 10:26:51;;;;;;;4.30;3.22;;;;;;;21.72;62.28;99131.14;1690760;83;21039;-62
2021/06/11 10:29:20;;;;;;;4.80;3.40;;;;;;;21.55;62.89;99132.09;1688587;84;21546;-62
2021/06/11 10:31:46;;;;;;;5.10;3.12;;;;;;;21.55;63.74;99129.33;1672821;85;21480;-63
2021/06/11 10:34:13;;;;;;;4.22;3.22;;;;;;;21.65;64.09;99128.77;1700478;83;21102;-63
2021/06/11 10:36:45;;;;;;;4.80;3.30;;;;;;;21.77;65.09;99132.83;1717517;83;20995;-64
2021/06/11 10:39:18;;;;;;;4.70;3.17;;;;;;;21.84;63.86;99134.38;1716469;83;21030;-63
2021/06/11 10:42:02;;;;;;;4.80;3.50;;;;;;;21.89;63.91;99125.80;1667985;85;20983;-63
2021/06/11 10:44:49;;;;;;;5.05;3.02;;;;;;;22.05;63.68;99119.66;1689540;83;21063;-61
2021/06/11 10:47:21;;;;;;;3.55;2.62;;;;;;;22.21;61.20;99116.23;1685395;85;20992;-63
2021/06/11 10:50:01;;;;;;;5.25;3.00;;;;;;;22.38;61.10;99119.18;1713240;83;21022;-63
2021/06/11 10:52:35;;;;;;;5.65;2.62;;;;;;;22.55;59.86;99119.31;1718800;83;21626;-64
2021/06/11 10:55:24;;;;;;;3.15;2.58;;;;;;;22.54;58.97;99113.54;1739293;82;20999;-63
2021/06/11 10:57:59;;;;;;;3.92;2.60;;;;;;;22.54;58.30;99112.95;1706674;83;21395;-64
2021/06/11 11:00:43;;;;;;;4.83;2.40;;;;;;;22.48;58.61;99113.05;1719999;83;20931;-62
2021/06/11 11:03:28;;;;;;;5.87;2.70;;;;;;;22.61;58.60;99106.75;1692488;85;21357;-63
2021/06/11 11:05:54;;;;;;;4.08;2.75;;;;;;;22.74;57.75;99103.47;1721290;83;20986;-63
2021/06/11 11:08:21;;;;;;;4.75;3.20;;;;;;;22.84;58.21;99106.25;1667557;85;21545;-63
2021/06/11 11:10:52;;;;;;;3.75;2.77;;;;;;;23.03;57.64;99102.02;1713106;83;21450;-64
2021/06/11 11:13:25;;;;;;;3.87;2.27;;;;;;;23.18;55.63;99096.95;1718912;83;21073;-62
2021/06/11 11:15:55;;;;;;;3.15;2.47;;;;;;;23.28;56.58;99085.20;1690845;85;21823;-63
2021/06/11 11:18:39;;;;;;;3.67;2.60;;;;;;;23.42;55.11;99085.28;1707319;83;21085;-63
2021/06/11 11:21:26;;;;;;;5.70;2.80;;;;;;;23.52;54.68;99077.11;1689518;83;21496;-64
2021/06/11 11:23:55;;;;;;;3.92;2.65;;;;;;;23.65;55.56;99081.86;1668767;84;21077;-61
2021/06/11 11:26:46;;;;;;;2.92;2.60;;;;;;;23.71;55.27;99080.35;1712503;83;21545;-65
2021/06/11 11:29:14;;;;;;;3.95;2.60;;;;;;;23.59;54.01;99081.39;1712575;82;21007;-61
2021/06/11 11:31:42;;;;;;;4.08;2.85;;;;;;;23.37;54.00;99083.58;1692192;84;21660;-61
2021/06/11 11:34:08;;;;;;;3.72;2.52;;;;;;;23.30;53.64;99073.74;1713022;83;21035;-61
2021/06/11 11:36:35;;;;;;;4.15;2.40;;;;;;;23.36;52.78;99066.69;1707545;83;21006;-62
2021/06/11 11:39:08;;;;;;;3.40;2.17;;;;;;;23.53;53.64;99075.91;1690096;83;21082;-64
2021/06/11 11:41:35;;;;;;;3.00;2.52;;;;;;;23.55;52.38;99070.80;1705888;83;20998;-62
2021/06/11 11:44:01;;;;;;;4.30;2.58;;;;;;;23.28;52.93;99068.55;1672475;83;21642;-62
2021/06/11 11:46:30;;;;;;;6.55;3.90;;;;;;;23.21;54.31;99069.02;1715126;83;20998;-61
2021/06/11 11:48:56;;;;;;;5.58;2.30;;;;;;;23.37;54.17;99067.50;1691073;83;21039;-62
2021/06/11 11:51:24;;;;;;;4.78;2.58;;;;;;;23.57;52.27;99075.39;1702762;82;21035;-62
2021/06/11 11:53:51;;;;;;;4.17;1.95;;;;;;;23.64;51.03;99067.74;1731195;81;21122;-62
2021/06/11 11:56:17;;;;;;;5.12;2.75;;;;;;;23.73;50.80;99064.93;1714036;83;21021;-61
2021/06/11 11:58:45;;;;;;;2.40;2.00;;;;;;;23.73;49.78;99057.98;1700926;83;21056;-62
2021/06/11 12:01:14;;;;;;;3.35;2.60;;;;;;;23.76;50.41;99054.45;1719742;83;20987;-61
2021/06/11 12:03:40;;;;;;;5.62;3.00;;;;;;;23.82;50.74;99047.96;1725669;83;21017;-61
2021/06/11 12:06:06;;;;;;;3.58;2.30;;;;;;;23.93;51.77;99053.08;1703416;83;20986;-62
2021/06/11 12:08:33;;;;;;;3.52;2.10;;;;;;;24.10;50.68;99055.87;1695401;84;21030;-61
2021/06/11 12:10:59;;;;;;;3.37;2.10;;;;;;;24.14;49.94;99062.31;1702569;83;20975;-62